Weather at Salt Lake City International Airport

Public forecast

Using degrees Fahrenheit for public forecast. Weather courtesy of forecast.io.

Current aviation weather report (METAR) for Salt Lake City International Airport

Retrieved 2022/07/06 02:54 UTC (54 minutes ago):

KSLC 060254Z 35008KT 10SM FEW110 29/07 A2986 RMK AO2 SLP047 T02940067 55002

Aviation forecast (TAF) for Salt Lake City International Airport

Retrieved 2022-07-06 00:22 UTC (3 hours ago):

TAF KSLC 052320Z 0600/0706 20011KT P6SM FEW120 FM060300 15007KT P6SM FEW110 FM061200 16014G24KT P6SM SCT100 FM070300 15006KT P6SM FEW120